createdAt,value
2023-01-25T00:01:13.006Z,20.38
2023-01-25T00:03:45.908Z,20.35
2023-01-25T00:06:15.665Z,20.33
2023-01-25T00:08:50.306Z,20.33
2023-01-25T00:11:23.442Z,20.31
2023-01-25T00:13:53.886Z,20.29
2023-01-25T00:16:24.172Z,20.27
2023-01-25T00:18:53.820Z,20.25
2023-01-25T00:21:25.808Z,20.24
2023-01-25T00:23:55.721Z,20.23
2023-01-25T00:26:35.304Z,20.22
2023-01-25T00:29:03.189Z,20.19
2023-01-25T00:31:37.559Z,20.18
2023-01-25T00:34:23.450Z,20.17
2023-01-25T00:37:03.158Z,20.14
2023-01-25T00:39:29.939Z,20.13
2023-01-25T00:41:59.564Z,20.11
2023-01-25T00:44:29.441Z,20.09
2023-01-25T00:47:02.191Z,20.09
2023-01-25T00:49:34.546Z,20.07
2023-01-25T00:52:01.322Z,20.07
2023-01-25T00:54:29.074Z,20.05
2023-01-25T00:56:55.981Z,20.05
2023-01-25T00:59:24.311Z,20.04
2023-01-25T01:01:55.088Z,20.02
2023-01-25T01:04:22.479Z,19.99
2023-01-25T01:06:58.530Z,20.00
2023-01-25T01:09:28.997Z,19.99
2023-01-25T01:11:59.203Z,19.97
2023-01-25T01:14:25.893Z,19.96
2023-01-25T01:16:52.664Z,19.96
2023-01-25T01:19:19.792Z,19.94
2023-01-25T01:21:49.877Z,19.94
2023-01-25T01:24:16.955Z,19.92
2023-01-25T01:26:43.696Z,19.92
2023-01-25T01:29:10.456Z,19.89
2023-01-25T01:31:37.622Z,19.89
2023-01-25T01:34:04.241Z,19.86
2023-01-25T01:36:31.741Z,19.86
2023-01-25T01:38:59.169Z,19.86
2023-01-25T01:41:32.165Z,19.85
2023-01-25T01:43:58.703Z,19.84
2023-01-25T01:46:28.480Z,19.84
2023-01-25T01:49:00.927Z,19.82
2023-01-25T01:51:46.129Z,19.81
2023-01-25T01:54:30.138Z,19.80
2023-01-25T01:57:10.662Z,19.80
2023-01-25T02:00:26.195Z,19.78
2023-01-25T02:02:55.954Z,19.76
2023-01-25T02:05:47.242Z,19.75
2023-01-25T02:08:17.130Z,19.74
2023-01-25T02:10:49.237Z,19.72
2023-01-25T02:13:17.868Z,19.72
2023-01-25T02:15:50.431Z,19.70
2023-01-25T02:18:20.258Z,19.69
2023-01-25T02:20:52.409Z,19.69
2023-01-25T02:23:30.027Z,19.68
2023-01-25T02:26:00.496Z,19.68
2023-01-25T02:28:42.919Z,19.68
2023-01-25T02:31:10.305Z,19.66
2023-01-25T02:33:39.709Z,19.66
2023-01-25T02:36:09.184Z,19.64
2023-01-25T02:38:39.939Z,19.65
2023-01-25T02:41:30.232Z,19.62
2023-01-25T02:43:56.952Z,19.61
2023-01-25T02:46:30.203Z,19.61
2023-01-25T02:49:00.795Z,19.59
2023-01-25T02:51:30.813Z,19.59
2023-01-25T02:53:58.555Z,19.58
2023-01-25T02:56:25.923Z,19.56
2023-01-25T02:58:53.213Z,19.56
2023-01-25T03:01:20.369Z,19.56
2023-01-25T03:03:53.548Z,19.55
2023-01-25T03:06:20.027Z,19.52
2023-01-25T03:08:47.025Z,19.52
2023-01-25T03:11:16.825Z,19.50
2023-01-25T03:13:43.521Z,19.49
2023-01-25T03:16:13.995Z,19.49
2023-01-25T03:18:41.150Z,19.47
2023-01-25T03:21:14.219Z,19.47
2023-01-25T03:23:41.452Z,19.46
2023-01-25T03:26:19.104Z,19.47
2023-01-25T03:28:46.337Z,19.45
2023-01-25T03:31:14.911Z,19.45
2023-01-25T03:33:42.769Z,19.43
2023-01-25T03:36:10.696Z,19.43
2023-01-25T03:38:38.054Z,19.43
2023-01-25T03:41:04.802Z,19.42
2023-01-25T03:43:32.195Z,19.42
2023-01-25T03:46:01.094Z,19.41
2023-01-25T03:48:29.088Z,19.40
2023-01-25T03:51:00.442Z,19.37
2023-01-25T03:53:33.345Z,19.37
2023-01-25T03:56:08.038Z,19.38
2023-01-25T03:58:38.960Z,19.35
2023-01-25T04:01:07.599Z,19.35
2023-01-25T04:03:35.101Z,19.34
2023-01-25T04:06:02.538Z,19.34
2023-01-25T04:08:32.633Z,19.33
2023-01-25T04:11:09.942Z,19.33
2023-01-25T04:13:38.637Z,19.31
2023-01-25T04:16:07.913Z,19.29
2023-01-25T04:18:34.828Z,19.29
2023-01-25T04:21:01.518Z,19.27
2023-01-25T04:23:28.380Z,19.27
2023-01-25T04:26:04.143Z,19.26
2023-01-25T04:28:30.945Z,19.23
2023-01-25T04:31:00.576Z,19.23
2023-01-25T04:33:28.954Z,19.24
2023-01-25T04:35:55.779Z,19.25
2023-01-25T04:38:22.411Z,19.23
2023-01-25T04:40:49.282Z,19.24
2023-01-25T04:43:19.894Z,19.21
2023-01-25T04:45:53.000Z,19.22
2023-01-25T04:48:22.125Z,19.20
2023-01-25T04:50:51.835Z,19.21
2023-01-25T04:53:22.465Z,19.16
2023-01-25T04:55:49.486Z,19.17
2023-01-25T04:58:19.215Z,19.17
2023-01-25T05:00:48.316Z,19.13
2023-01-25T05:03:14.993Z,19.11
2023-01-25T05:05:47.111Z,19.13
2023-01-25T05:08:13.816Z,19.13
2023-01-25T05:10:40.510Z,19.13
2023-01-25T05:13:10.712Z,19.14
2023-01-25T05:15:40.839Z,19.13
2023-01-25T05:18:07.514Z,19.13
2023-01-25T05:20:39.890Z,19.15
2023-01-25T05:23:06.623Z,19.15
2023-01-25T05:25:36.835Z,19.16
2023-01-25T05:28:12.249Z,19.16
2023-01-25T05:30:42.611Z,19.16
2023-01-25T05:33:12.725Z,19.16
2023-01-25T05:35:39.427Z,19.15
2023-01-25T05:38:06.283Z,19.17
2023-01-25T05:40:33.047Z,19.15
2023-01-25T05:42:59.970Z,19.16
2023-01-25T05:45:30.996Z,19.16
2023-01-25T05:48:00.710Z,19.15
2023-01-25T05:50:30.821Z,19.15
2023-01-25T05:53:02.662Z,19.15
2023-01-25T05:55:29.808Z,19.14
2023-01-25T05:57:56.869Z,19.13
2023-01-25T06:00:30.541Z,19.13
2023-01-25T06:03:01.404Z,19.14
2023-01-25T06:05:33.118Z,19.14
2023-01-25T06:08:03.621Z,19.13
2023-01-25T06:10:30.647Z,19.15
2023-01-25T06:12:59.158Z,19.16
2023-01-25T06:15:35.407Z,19.17
2023-01-25T06:18:05.986Z,19.20
2023-01-25T06:20:39.709Z,19.24
2023-01-25T06:23:09.854Z,19.26
2023-01-25T06:25:40.040Z,19.26
2023-01-25T06:28:10.676Z,19.27
2023-01-25T06:30:44.585Z,19.27
2023-01-25T06:33:11.903Z,19.31
2023-01-25T06:35:38.934Z,19.34
2023-01-25T06:38:06.286Z,19.37
2023-01-25T06:40:36.523Z,19.40
2023-01-25T06:43:08.137Z,19.45
2023-01-25T06:45:38.743Z,19.47
2023-01-25T06:48:12.867Z,19.50
2023-01-25T06:50:40.742Z,19.55
2023-01-25T06:53:11.492Z,19.59
2023-01-25T06:55:41.590Z,19.65
2023-01-25T06:58:14.426Z,19.69
2023-01-25T07:00:44.895Z,19.73
2023-01-25T07:03:11.909Z,19.78
2023-01-25T07:05:41.643Z,19.82
2023-01-25T07:08:22.700Z,19.87
2023-01-25T07:11:01.602Z,19.92
2023-01-25T07:13:33.515Z,19.95
2023-01-25T07:16:02.884Z,19.99
2023-01-25T07:18:31.071Z,20.02
2023-01-25T07:21:11.998Z,20.03
2023-01-25T07:23:40.086Z,20.02
2023-01-25T07:26:17.405Z,20.02
2023-01-25T07:28:45.484Z,20.02
2023-01-25T07:31:15.327Z,20.03
2023-01-25T07:33:42.427Z,20.05
2023-01-25T07:36:11.042Z,20.07
2023-01-25T07:38:40.677Z,20.08
2023-01-25T07:41:07.782Z,20.13
2023-01-25T07:43:34.565Z,20.19
2023-01-25T07:46:07.125Z,20.21
2023-01-25T07:48:38.421Z,20.24
2023-01-25T07:51:13.250Z,20.27
2023-01-25T07:53:44.053Z,20.29
2023-01-25T07:56:14.829Z,20.32
2023-01-25T07:58:41.570Z,20.33
2023-01-25T08:01:19.757Z,20.33
2023-01-25T08:03:47.411Z,20.34
2023-01-25T08:06:28.279Z,20.35
2023-01-25T08:08:58.075Z,20.35
2023-01-25T08:11:27.690Z,20.37
2023-01-25T08:14:02.796Z,20.37
2023-01-25T08:16:33.306Z,20.37
2023-01-25T08:19:01.722Z,20.38
2023-01-25T08:21:30.968Z,20.38
2023-01-25T08:23:59.757Z,20.38
2023-01-25T08:26:29.391Z,20.38
2023-01-25T08:28:57.178Z,20.39
2023-01-25T08:31:31.533Z,20.39
2023-01-25T08:33:58.928Z,20.39
2023-01-25T08:36:26.241Z,20.38
2023-01-25T08:38:59.594Z,20.40
2023-01-25T08:41:28.157Z,20.39
2023-01-25T08:43:56.457Z,20.38
2023-01-25T08:46:30.214Z,20.38
2023-01-25T08:48:58.815Z,20.37
2023-01-25T08:51:26.483Z,20.38
2023-01-25T08:53:53.974Z,20.37
2023-01-25T08:56:24.207Z,20.37
2023-01-25T08:58:53.450Z,20.37
2023-01-25T09:01:23.829Z,20.36
2023-01-25T09:03:51.367Z,20.37
2023-01-25T09:06:20.615Z,20.37
2023-01-25T09:09:11.256Z,20.36
2023-01-25T09:11:41.653Z,20.35
2023-01-25T09:14:08.463Z,20.35
2023-01-25T09:16:35.229Z,20.35
2023-01-25T09:19:06.296Z,20.35
2023-01-25T09:21:37.872Z,20.33
2023-01-25T09:24:07.315Z,20.34
2023-01-25T09:26:59.644Z,20.33
2023-01-25T09:29:28.443Z,20.32
2023-01-25T09:31:58.796Z,20.33
2023-01-25T09:34:25.623Z,20.32
2023-01-25T09:36:52.424Z,20.31
2023-01-25T09:39:22.451Z,20.31
2023-01-25T09:42:20.554Z,20.30
2023-01-25T09:45:07.467Z,20.30
2023-01-25T09:47:51.158Z,20.30
2023-01-25T09:50:26.616Z,20.29
2023-01-25T09:53:20.987Z,20.29
2023-01-25T09:55:58.996Z,20.29
2023-01-25T09:58:54.177Z,20.26
2023-01-25T10:01:47.006Z,20.23
2023-01-25T10:04:21.539Z,20.21
2023-01-25T10:07:01.304Z,20.22
2023-01-25T10:09:47.148Z,20.20
2023-01-25T10:12:21.562Z,20.20
2023-01-25T10:14:52.376Z,20.21
2023-01-25T10:17:39.925Z,20.21
2023-01-25T10:20:48.051Z,20.24
2023-01-25T10:23:33.523Z,20.26
2023-01-25T10:26:25.275Z,20.27
2023-01-25T10:29:20.470Z,20.28
2023-01-25T10:32:14.582Z,20.29
2023-01-25T10:34:55.801Z,20.30
2023-01-25T10:37:34.568Z,20.30
2023-01-25T10:40:15.865Z,20.30
2023-01-25T10:42:54.496Z,20.30
2023-01-25T10:45:27.280Z,20.30
2023-01-25T10:48:07.481Z,20.30
2023-01-25T10:50:39.970Z,20.31
2023-01-25T10:53:27.202Z,20.32
2023-01-25T10:56:35.704Z,20.32
2023-01-25T10:59:22.902Z,20.32
2023-01-25T11:01:53.628Z,20.32
2023-01-25T11:04:36.119Z,20.34
2023-01-25T11:07:04.786Z,20.33
2023-01-25T11:09:37.788Z,20.33
2023-01-25T11:12:21.457Z,20.31
2023-01-25T11:14:52.126Z,20.33
2023-01-25T11:17:31.574Z,20.33
2023-01-25T11:20:20.095Z,20.33
2023-01-25T11:22:53.551Z,20.33
2023-01-25T11:25:41.720Z,20.36
2023-01-25T11:28:21.387Z,20.34
2023-01-25T11:30:49.795Z,20.31
2023-01-25T11:33:22.204Z,20.33
2023-01-25T11:36:14.983Z,20.32
2023-01-25T11:38:59.607Z,20.34
2023-01-25T11:41:43.556Z,20.33
2023-01-25T11:44:28.850Z,20.35
2023-01-25T11:47:23.139Z,20.35
2023-01-25T11:49:50.198Z,20.34
2023-01-25T11:52:40.724Z,20.37
2023-01-25T11:55:37.071Z,20.38
2023-01-25T11:58:13.071Z,20.38
2023-01-25T12:01:21.603Z,20.39
2023-01-25T12:04:04.736Z,20.40
2023-01-25T12:06:43.570Z,20.40
2023-01-25T12:09:20.196Z,20.41
2023-01-25T12:11:52.963Z,20.40
2023-01-25T12:14:41.425Z,20.40
2023-01-25T12:17:40.079Z,20.39
2023-01-25T12:20:34.725Z,20.39
2023-01-25T12:23:27.284Z,20.38
2023-01-25T12:26:11.994Z,20.38
2023-01-25T12:28:49.885Z,20.39
2023-01-25T12:31:43.128Z,20.39
2023-01-25T12:34:25.999Z,20.39
2023-01-25T12:37:02.808Z,20.39
2023-01-25T12:39:38.228Z,20.38
2023-01-25T12:42:29.851Z,20.37
2023-01-25T12:45:20.916Z,20.35
2023-01-25T12:48:17.187Z,20.34
2023-01-25T12:50:58.524Z,20.31
2023-01-25T12:53:34.385Z,20.33
2023-01-25T12:56:02.387Z,20.32
2023-01-25T12:58:38.177Z,20.31
2023-01-25T13:01:25.457Z,20.30
2023-01-25T13:04:07.048Z,20.27
2023-01-25T13:06:39.481Z,20.26
2023-01-25T13:09:27.649Z,20.28
2023-01-25T13:11:54.464Z,20.15
2023-01-25T13:14:36.776Z,20.09
2023-01-25T13:17:20.166Z,20.07
2023-01-25T13:19:47.163Z,20.06
2023-01-25T13:22:17.063Z,20.08
2023-01-25T13:25:09.946Z,20.09
2023-01-25T13:27:40.153Z,20.11
2023-01-25T13:30:51.254Z,20.15
2023-01-25T13:33:33.743Z,20.18
2023-01-25T13:36:40.614Z,20.20
2023-01-25T13:39:25.829Z,20.22
2023-01-25T13:42:05.092Z,20.25
2023-01-25T13:44:39.290Z,20.27
2023-01-25T13:47:13.102Z,20.27
2023-01-25T13:49:57.347Z,20.28
2023-01-25T13:52:26.566Z,20.29
2023-01-25T13:54:59.500Z,20.29
2023-01-25T13:57:35.999Z,20.31
2023-01-25T14:00:11.196Z,20.31
2023-01-25T14:02:40.749Z,20.31
2023-01-25T14:05:21.530Z,20.31
2023-01-25T14:07:58.891Z,20.30
2023-01-25T14:10:30.172Z,20.28
2023-01-25T14:13:00.791Z,20.28
2023-01-25T14:15:30.964Z,20.28
2023-01-25T14:18:42.116Z,20.26
2023-01-25T14:21:27.457Z,20.25
2023-01-25T14:23:54.259Z,20.24
2023-01-25T14:26:27.841Z,20.23
2023-01-25T14:29:01.383Z,20.21
2023-01-25T14:31:35.330Z,20.20
2023-01-25T14:34:03.321Z,20.20
2023-01-25T14:36:31.722Z,20.19
2023-01-25T14:38:58.603Z,20.17
2023-01-25T14:41:38.820Z,20.14
2023-01-25T14:44:12.874Z,20.13
2023-01-25T14:46:40.817Z,20.13
2023-01-25T14:49:20.908Z,20.13
2023-01-25T14:52:06.544Z,20.14
2023-01-25T14:54:44.623Z,20.14
2023-01-25T14:57:40.897Z,20.13
2023-01-25T15:00:22.961Z,20.14
2023-01-25T15:02:55.503Z,20.13
2023-01-25T15:05:28.223Z,20.11
2023-01-25T15:08:15.949Z,20.09
2023-01-25T15:10:55.854Z,20.07
2023-01-25T15:13:27.946Z,20.04
2023-01-25T15:16:01.993Z,20.02
2023-01-25T15:18:47.051Z,20.01
2023-01-25T15:21:20.417Z,19.98
2023-01-25T15:23:52.651Z,20.00
2023-01-25T15:26:23.335Z,20.00
2023-01-25T15:28:52.416Z,19.99
2023-01-25T15:31:23.548Z,20.00
2023-01-25T15:33:50.563Z,20.01
2023-01-25T15:36:19.973Z,20.00
2023-01-25T15:38:50.470Z,20.00
2023-01-25T15:41:17.228Z,20.02
2023-01-25T15:43:48.160Z,20.04
2023-01-25T15:46:36.252Z,20.05
2023-01-25T15:49:07.361Z,20.11
2023-01-25T15:51:35.800Z,20.14
2023-01-25T15:54:05.676Z,20.17
2023-01-25T15:56:36.766Z,20.19
2023-01-25T15:59:08.647Z,20.21
2023-01-25T16:01:38.462Z,20.21
2023-01-25T16:04:05.458Z,20.21
2023-01-25T16:06:38.046Z,20.20
2023-01-25T16:09:25.308Z,20.20
2023-01-25T16:11:56.734Z,20.19
2023-01-25T16:14:25.419Z,20.18
2023-01-25T16:17:00.531Z,20.16
2023-01-25T16:19:31.162Z,20.16
2023-01-25T16:21:58.497Z,20.14
2023-01-25T16:24:28.492Z,20.16
2023-01-25T16:26:59.112Z,20.14
2023-01-25T16:29:25.961Z,20.15
2023-01-25T16:31:53.573Z,20.14
2023-01-25T16:34:26.089Z,20.14
2023-01-25T16:36:56.201Z,20.15
2023-01-25T16:39:28.913Z,20.14
2023-01-25T16:41:55.686Z,20.14
2023-01-25T16:44:22.536Z,20.15
2023-01-25T16:46:51.469Z,20.15
2023-01-25T16:49:23.932Z,20.13
2023-01-25T16:51:51.811Z,20.11
2023-01-25T16:54:19.950Z,20.12
2023-01-25T16:56:50.703Z,20.09
2023-01-25T16:59:20.885Z,20.10
2023-01-25T17:01:48.153Z,20.09
2023-01-25T17:04:15.492Z,20.10
2023-01-25T17:06:44.753Z,20.08
2023-01-25T17:09:23.113Z,20.09
2023-01-25T17:11:56.787Z,20.09
2023-01-25T17:14:23.641Z,20.10
2023-01-25T17:16:52.619Z,20.11
2023-01-25T17:19:21.619Z,20.15
2023-01-25T17:21:51.683Z,20.18
2023-01-25T17:24:20.248Z,20.21
2023-01-25T17:26:47.316Z,20.26
2023-01-25T17:29:14.011Z,20.29
2023-01-25T17:31:43.593Z,20.31
2023-01-25T17:34:17.464Z,20.33
2023-01-25T17:36:45.680Z,20.35
2023-01-25T17:39:15.155Z,20.38
2023-01-25T17:41:46.095Z,20.39
2023-01-25T17:44:13.593Z,20.40
2023-01-25T17:46:43.175Z,20.43
2023-01-25T17:49:12.802Z,20.45
2023-01-25T17:51:39.596Z,20.45
2023-01-25T17:54:07.137Z,20.44
2023-01-25T17:56:39.452Z,20.45
2023-01-25T17:59:09.534Z,20.44
2023-01-25T18:01:36.580Z,20.44
2023-01-25T18:04:07.917Z,20.44
2023-01-25T18:06:34.706Z,20.44
2023-01-25T18:09:03.045Z,20.45
2023-01-25T18:11:35.200Z,20.45
2023-01-25T18:14:06.860Z,20.44
2023-01-25T18:16:33.844Z,20.44
2023-01-25T18:19:01.667Z,20.45
2023-01-25T18:21:30.999Z,20.44
2023-01-25T18:24:22.213Z,20.45
2023-01-25T18:26:48.986Z,20.46
2023-01-25T18:29:47.649Z,20.48
2023-01-25T18:32:20.733Z,20.47
2023-01-25T18:34:50.055Z,20.48
2023-01-25T18:37:19.920Z,20.49
2023-01-25T18:39:48.520Z,20.51
2023-01-25T18:42:22.058Z,20.47
2023-01-25T18:44:49.224Z,20.49
2023-01-25T18:47:18.844Z,20.48
2023-01-25T18:49:50.762Z,20.47
2023-01-25T18:52:22.248Z,20.48
2023-01-25T18:54:52.258Z,20.49
2023-01-25T18:57:25.416Z,20.50
2023-01-25T18:59:52.011Z,20.52
2023-01-25T19:02:19.461Z,20.55
2023-01-25T19:04:49.537Z,20.57
2023-01-25T19:07:19.691Z,20.59
2023-01-25T19:09:49.283Z,20.64
2023-01-25T19:12:21.631Z,20.68
2023-01-25T19:14:48.706Z,20.72
2023-01-25T19:17:18.235Z,20.76
2023-01-25T19:19:49.801Z,20.78
2023-01-25T19:22:20.020Z,20.82
2023-01-25T19:24:49.366Z,20.88
2023-01-25T19:27:16.300Z,20.90
2023-01-25T19:29:45.919Z,20.94
2023-01-25T19:32:12.567Z,20.98
2023-01-25T19:34:42.143Z,21.01
2023-01-25T19:37:08.971Z,21.02
2023-01-25T19:39:35.742Z,21.06
2023-01-25T19:42:05.350Z,21.09
2023-01-25T19:44:32.086Z,21.12
2023-01-25T19:46:58.819Z,21.12
2023-01-25T19:49:28.659Z,21.15
2023-01-25T19:51:58.094Z,21.17
2023-01-25T19:54:28.014Z,21.20
2023-01-25T19:56:54.909Z,21.21
2023-01-25T19:59:26.045Z,21.22
2023-01-25T20:01:56.359Z,21.22
2023-01-25T20:04:24.145Z,21.26
2023-01-25T20:06:51.493Z,21.26
2023-01-25T20:09:29.251Z,21.27
2023-01-25T20:11:57.600Z,21.28
2023-01-25T20:14:30.154Z,21.29
2023-01-25T20:16:57.082Z,21.29
2023-01-25T20:19:27.143Z,21.30
2023-01-25T20:22:00.155Z,21.33
2023-01-25T20:24:27.517Z,21.33
2023-01-25T20:26:57.253Z,21.35
2023-01-25T20:29:26.896Z,21.36
2023-01-25T20:31:57.168Z,21.37
2023-01-25T20:34:24.146Z,21.36
2023-01-25T20:36:51.348Z,21.38
2023-01-25T20:39:21.047Z,21.39
2023-01-25T20:41:48.090Z,21.39
2023-01-25T20:44:16.499Z,21.38
2023-01-25T20:46:45.415Z,21.40
2023-01-25T20:49:18.523Z,21.44
2023-01-25T20:51:48.753Z,21.44
2023-01-25T20:54:19.707Z,21.45
2023-01-25T20:56:49.052Z,21.50
2023-01-25T20:59:16.085Z,21.47
2023-01-25T21:01:42.867Z,21.48
2023-01-25T21:04:09.720Z,21.42
2023-01-25T21:06:36.892Z,21.41
2023-01-25T21:09:07.451Z,21.36
2023-01-25T21:11:36.828Z,21.29
2023-01-25T21:14:06.738Z,21.24
2023-01-25T21:16:33.423Z,21.19
2023-01-25T21:19:05.631Z,21.15
2023-01-25T21:21:33.149Z,21.08
2023-01-25T21:24:03.113Z,21.06
2023-01-25T21:26:37.858Z,21.02
2023-01-25T21:29:05.569Z,20.99
2023-01-25T21:31:34.738Z,20.95
2023-01-25T21:34:02.622Z,20.94
2023-01-25T21:36:29.914Z,20.90
2023-01-25T21:38:59.271Z,20.87
2023-01-25T21:41:32.945Z,20.83
2023-01-25T21:44:00.684Z,20.81
2023-01-25T21:46:29.920Z,20.79
2023-01-25T21:49:01.396Z,20.77
2023-01-25T21:51:28.455Z,20.74
2023-01-25T21:53:55.097Z,20.73
2023-01-25T21:56:21.808Z,20.71
2023-01-25T21:58:53.520Z,20.71
2023-01-25T22:01:21.552Z,20.67
2023-01-25T22:03:52.248Z,20.65
2023-01-25T22:06:19.376Z,20.64
2023-01-25T22:08:48.823Z,20.62
2023-01-25T22:11:15.700Z,20.61
2023-01-25T22:13:42.660Z,20.59
2023-01-25T22:16:11.388Z,20.58
2023-01-25T22:18:41.764Z,20.56
2023-01-25T22:21:18.528Z,20.58
2023-01-25T22:23:46.220Z,20.56
2023-01-25T22:26:22.650Z,20.54
2023-01-25T22:28:53.974Z,20.51
2023-01-25T22:31:27.824Z,20.50
2023-01-25T22:33:56.058Z,20.51
2023-01-25T22:36:24.303Z,20.47
2023-01-25T22:38:54.221Z,20.46
2023-01-25T22:41:23.764Z,20.46
2023-01-25T22:43:50.898Z,20.43
2023-01-25T22:46:23.139Z,20.42
2023-01-25T22:48:53.370Z,20.41
2023-01-25T22:51:26.664Z,20.40
2023-01-25T22:53:57.391Z,20.39
2023-01-25T22:56:26.761Z,20.35
2023-01-25T22:58:53.826Z,20.35
2023-01-25T23:01:25.446Z,20.33
2023-01-25T23:03:52.857Z,20.32
2023-01-25T23:06:22.503Z,20.32
2023-01-25T23:08:52.975Z,20.33
2023-01-25T23:11:24.494Z,20.32
2023-01-25T23:13:53.069Z,20.33
2023-01-25T23:16:19.698Z,20.32
2023-01-25T23:18:46.357Z,20.33
2023-01-25T23:21:13.817Z,20.33
2023-01-25T23:23:40.632Z,20.32
2023-01-25T23:26:07.446Z,20.29
2023-01-25T23:28:36.790Z,20.31
2023-01-25T23:31:06.436Z,20.29
2023-01-25T23:33:33.226Z,20.27
2023-01-25T23:36:08.246Z,20.27
2023-01-25T23:38:34.940Z,20.28
2023-01-25T23:41:01.752Z,20.28
2023-01-25T23:43:28.750Z,20.28
2023-01-25T23:45:58.276Z,20.26
2023-01-25T23:48:24.911Z,20.27
2023-01-25T23:50:52.153Z,20.27
2023-01-25T23:53:19.376Z,20.25
2023-01-25T23:55:57.742Z,20.24
2023-01-25T23:58:28.108Z,20.22
